ITA75 EHAM-LIMC
Flight info
| Callsign | ITA75 |
|---|---|
| Flight time | N/A |
| Altitude | 37000 |
| Route | LOPIK N852 DIK M150 GEBDA Y173 EDISA Y852 NATOR N850 ODINA |
| Aircraft | A20N/M-SDFGRWY/C |
Departure
| Time | 2026-05-05 19:28 |
|---|---|
| Airport | Amsterdam Airport Schiphol (EHAM) |
Arrival
| Time | N/A |
|---|---|
| Airport | Milan Malpensa International Airport (LIMC) |
| Time | Latitude | Longitude | Altitude | Speed | Heading |
|---|---|---|---|---|---|
| 2026-05-05 18:53 | 52.30622 | 4.76628 | -1 ft | 0 kts | 239° |
| 2026-05-05 19:14 | 52.30626 | 4.76637 | -1 ft | 2 kts | 239° |
| 2026-05-05 19:14 | 52.30633 | 4.76658 | -1 ft | 2 kts | 239° |
| 2026-05-05 19:14 | 52.30641 | 4.76680 | -1 ft | 2 kts | 239° |
| 2026-05-05 19:14 | 52.30646 | 4.76693 | -1 ft | 2 kts | 239° |
| 2026-05-05 19:15 | 52.30656 | 4.76710 | -1 ft | 2 kts | 208° |
| 2026-05-05 19:15 | 52.30671 | 4.76718 | -1 ft | 2 kts | 184° |
| 2026-05-05 19:15 | 52.30686 | 4.76716 | -1 ft | 2 kts | 159° |
| 2026-05-05 19:15 | 52.30693 | 4.76710 | -1 ft | 1 kts | 144° |
| 2026-05-05 19:16 | 52.30697 | 4.76705 | -1 ft | 0 kts | 147° |
| 2026-05-05 19:18 | 52.30696 | 4.76706 | -2 ft | 0 kts | 147° |
| 2026-05-05 19:18 | 52.30680 | 4.76724 | -2 ft | 4 kts | 147° |
| 2026-05-05 19:19 | 52.30643 | 4.76766 | -1 ft | 8 kts | 141° |
| 2026-05-05 19:19 | 52.30604 | 4.76859 | -1 ft | 11 kts | 121° |
| 2026-05-05 19:19 | 52.30537 | 4.76940 | -1 ft | 7 kts | 149° |
| 2026-05-05 19:19 | 52.30532 | 4.76946 | -2 ft | 2 kts | 149° |
| 2026-05-05 19:20 | 52.30487 | 4.76991 | -1 ft | 10 kts | 148° |
| 2026-05-05 19:20 | 52.30422 | 4.77040 | -1 ft | 10 kts | 174° |
| 2026-05-05 19:20 | 52.30361 | 4.76954 | -1 ft | 14 kts | 238° |
| 2026-05-05 19:20 | 52.30297 | 4.76783 | -1 ft | 20 kts | 238° |
| 2026-05-05 19:21 | 52.30220 | 4.76584 | -1 ft | 20 kts | 238° |
| 2026-05-05 19:21 | 52.30152 | 4.76407 | -1 ft | 12 kts | 238° |
| 2026-05-05 19:21 | 52.30141 | 4.76294 | -1 ft | 11 kts | 308° |
| 2026-05-05 19:21 | 52.30162 | 4.76175 | -1 ft | 13 kts | 240° |
| 2026-05-05 19:22 | 52.30109 | 4.76039 | -2 ft | 15 kts | 238° |
| 2026-05-05 19:22 | 52.30050 | 4.75882 | -1 ft | 17 kts | 237° |
| 2026-05-05 19:22 | 52.29979 | 4.75697 | -1 ft | 20 kts | 238° |
| 2026-05-05 19:22 | 52.29901 | 4.75496 | -1 ft | 19 kts | 238° |
| 2026-05-05 19:23 | 52.29839 | 4.75317 | -2 ft | 17 kts | 251° |
| 2026-05-05 19:23 | 52.29879 | 4.75123 | -1 ft | 20 kts | 312° |
| 2026-05-05 19:23 | 52.29982 | 4.74935 | -1 ft | 23 kts | 311° |
| 2026-05-05 19:23 | 52.30074 | 4.74763 | -1 ft | 19 kts | 311° |
| 2026-05-05 19:24 | 52.30159 | 4.74606 | -1 ft | 17 kts | 311° |
| 2026-05-05 19:24 | 52.30239 | 4.74458 | -2 ft | 15 kts | 312° |
| 2026-05-05 19:24 | 52.30309 | 4.74324 | -1 ft | 12 kts | 310° |
| 2026-05-05 19:24 | 52.30344 | 4.74214 | -1 ft | 9 kts | 277° |
| 2026-05-05 19:25 | 52.30337 | 4.74113 | -1 ft | 7 kts | 254° |
| 2026-05-05 19:25 | 52.30336 | 4.74107 | -1 ft | 0 kts | 251° |
| 2026-05-05 19:25 | 52.30336 | 4.74106 | -1 ft | 0 kts | 251° |
| 2026-05-05 19:26 | 52.30303 | 4.74034 | -1 ft | 10 kts | 225° |
| 2026-05-05 19:26 | 52.30297 | 4.74022 | -2 ft | 0 kts | 228° |
| 2026-05-05 19:26 | 52.30296 | 4.74022 | -2 ft | 0 kts | 228° |
| 2026-05-05 19:27 | 52.30288 | 4.74007 | -1 ft | 4 kts | 227° |
| 2026-05-05 19:27 | 52.30242 | 4.73937 | -1 ft | 14 kts | 220° |
| 2026-05-05 19:27 | 52.30190 | 4.73797 | -1 ft | 15 kts | 282° |
| 2026-05-05 19:27 | 52.30298 | 4.73742 | -1 ft | 23 kts | 4° |
| 2026-05-05 19:28 | 52.30722 | 4.73780 | -1 ft | 98 kts | 3° |
| 2026-05-05 19:28 | 52.31618 | 4.73864 | 0 ft | 159 kts | 3° |
| 2026-05-05 19:28 | 52.32780 | 4.73965 | 506 ft | 169 kts | 2° |
| 2026-05-05 19:28 | 52.33958 | 4.74108 | 1147 ft | 175 kts | 13° |
| 2026-05-05 19:29 | 52.35089 | 4.74799 | 1860 ft | 178 kts | 25° |
| 2026-05-05 19:29 | 52.36237 | 4.75718 | 2347 ft | 193 kts | 32° |
| 2026-05-05 19:29 | 52.37185 | 4.77358 | 2782 ft | 210 kts | 63° |
| 2026-05-05 19:29 | 52.37475 | 4.79760 | 3157 ft | 232 kts | 97° |
| 2026-05-05 19:30 | 52.37022 | 4.82316 | 3938 ft | 237 kts | 121° |
| 2026-05-05 19:30 | 52.35930 | 4.84263 | 4863 ft | 236 kts | 149° |
| 2026-05-05 19:30 | 52.34377 | 4.85097 | 5525 ft | 246 kts | 177° |
| 2026-05-05 19:30 | 52.32630 | 4.85096 | 6092 ft | 262 kts | 182° |
| 2026-05-05 19:31 | 52.30772 | 4.84985 | 6755 ft | 274 kts | 182° |
| 2026-05-05 19:31 | 52.28844 | 4.84889 | 7573 ft | 279 kts | 181° |
| 2026-05-05 19:31 | 52.26915 | 4.84894 | 8424 ft | 282 kts | 173° |
| 2026-05-05 19:31 | 52.25063 | 4.85779 | 9226 ft | 286 kts | 152° |
| 2026-05-05 19:32 | 52.23431 | 4.87610 | 10057 ft | 288 kts | 142° |
| 2026-05-05 19:32 | 52.21844 | 4.89708 | 10707 ft | 298 kts | 141° |
| 2026-05-05 19:32 | 52.20201 | 4.91907 | 11096 ft | 316 kts | 141° |
| 2026-05-05 19:32 | 52.18448 | 4.94226 | 11554 ft | 330 kts | 141° |
| 2026-05-05 19:33 | 52.16666 | 4.96554 | 12275 ft | 335 kts | 141° |
| 2026-05-05 19:33 | 52.14833 | 4.98933 | 13043 ft | 338 kts | 141° |
| 2026-05-05 19:33 | 52.12974 | 5.01337 | 13488 ft | 351 kts | 141° |
| 2026-05-05 19:33 | 52.10969 | 5.03765 | 13856 ft | 365 kts | 147° |
| 2026-05-05 19:34 | 52.08725 | 5.05716 | 14510 ft | 370 kts | 156° |
| 2026-05-05 19:34 | 52.06283 | 5.07102 | 15219 ft | 372 kts | 163° |
| 2026-05-05 19:34 | 52.03804 | 5.08219 | 15876 ft | 375 kts | 165° |
| 2026-05-05 19:35 | 51.98667 | 5.10443 | 16712 ft | 395 kts | 165° |
| 2026-05-05 19:35 | 51.96006 | 5.11618 | 17032 ft | 405 kts | 165° |
| 2026-05-05 19:35 | 51.93279 | 5.12830 | 17565 ft | 410 kts | 165° |
| 2026-05-05 19:35 | 51.90533 | 5.14054 | 18347 ft | 406 kts | 165° |
| 2026-05-05 19:36 | 51.87885 | 5.15231 | 19353 ft | 397 kts | 165° |
| 2026-05-05 19:36 | 51.85243 | 5.16399 | 20386 ft | 387 kts | 165° |
| 2026-05-05 19:36 | 51.82711 | 5.17518 | 21225 ft | 382 kts | 165° |
| 2026-05-05 19:36 | 51.80139 | 5.18655 | 21802 ft | 385 kts | 165° |
| 2026-05-05 19:37 | 51.77548 | 5.19800 | 22324 ft | 389 kts | 165° |
| 2026-05-05 19:37 | 51.74958 | 5.20944 | 22853 ft | 392 kts | 165° |
| 2026-05-05 19:37 | 51.72323 | 5.22106 | 23379 ft | 395 kts | 165° |
| 2026-05-05 19:37 | 51.69663 | 5.23278 | 23893 ft | 398 kts | 165° |
| 2026-05-05 19:38 | 51.66987 | 5.24456 | 24392 ft | 401 kts | 165° |
| 2026-05-05 19:38 | 51.64319 | 5.25629 | 24874 ft | 404 kts | 165° |
| 2026-05-05 19:38 | 51.61610 | 5.26818 | 25347 ft | 407 kts | 165° |
| 2026-05-05 19:38 | 51.58850 | 5.28028 | 25812 ft | 410 kts | 165° |
| 2026-05-05 19:39 | 51.56112 | 5.29227 | 26257 ft | 413 kts | 165° |
| 2026-05-05 19:39 | 51.53359 | 5.30431 | 26689 ft | 416 kts | 165° |
| 2026-05-05 19:39 | 51.50566 | 5.31651 | 27111 ft | 418 kts | 165° |
| 2026-05-05 19:39 | 51.47760 | 5.32875 | 27520 ft | 421 kts | 165° |
| 2026-05-05 19:40 | 51.44936 | 5.34105 | 27911 ft | 424 kts | 165° |
| 2026-05-05 19:40 | 51.42079 | 5.35348 | 28287 ft | 426 kts | 165° |
| 2026-05-05 19:40 | 51.39215 | 5.36593 | 28647 ft | 428 kts | 165° |
| 2026-05-05 19:40 | 51.36363 | 5.37834 | 28989 ft | 431 kts | 164° |
| 2026-05-05 19:41 | 51.33477 | 5.39092 | 29320 ft | 433 kts | 164° |
| 2026-05-05 19:41 | 51.30560 | 5.40362 | 29641 ft | 435 kts | 164° |
| 2026-05-05 19:41 | 51.27657 | 5.41619 | 30022 ft | 435 kts | 165° |
| 2026-05-05 19:41 | 51.24713 | 5.42719 | 30442 ft | 434 kts | 168° |
| 2026-05-05 19:42 | 51.21777 | 5.43700 | 30839 ft | 433 kts | 168° |
| 2026-05-05 19:42 | 51.18879 | 5.44692 | 31208 ft | 432 kts | 166° |
| 2026-05-05 19:42 | 51.15978 | 5.45887 | 31568 ft | 432 kts | 164° |
| 2026-05-05 19:42 | 51.13092 | 5.47157 | 31925 ft | 431 kts | 164° |
| 2026-05-05 19:43 | 51.10209 | 5.48418 | 32272 ft | 430 kts | 164° |
| 2026-05-05 19:43 | 51.07327 | 5.49674 | 32612 ft | 430 kts | 164° |
| 2026-05-05 19:43 | 51.04459 | 5.50923 | 32943 ft | 429 kts | 164° |
| 2026-05-05 19:43 | 51.01591 | 5.52171 | 33267 ft | 428 kts | 164° |
| 2026-05-05 19:44 | 50.98740 | 5.53409 | 33582 ft | 428 kts | 164° |
| 2026-05-05 19:44 | 50.95880 | 5.54650 | 33889 ft | 427 kts | 164° |
| 2026-05-05 19:44 | 50.93050 | 5.55877 | 34184 ft | 427 kts | 164° |
| 2026-05-05 19:44 | 50.90183 | 5.57118 | 34479 ft | 426 kts | 164° |
| 2026-05-05 19:45 | 50.87336 | 5.58345 | 34765 ft | 426 kts | 164° |
| 2026-05-05 19:45 | 50.84471 | 5.59576 | 35045 ft | 425 kts | 164° |
| 2026-05-05 19:45 | 50.81628 | 5.60797 | 35304 ft | 425 kts | 164° |
| 2026-05-05 19:45 | 50.78802 | 5.62013 | 35521 ft | 425 kts | 164° |
| 2026-05-05 19:46 | 50.75946 | 5.63241 | 35719 ft | 426 kts | 164° |
| 2026-05-05 19:46 | 50.73082 | 5.64471 | 35912 ft | 427 kts | 164° |
| 2026-05-05 19:46 | 50.70231 | 5.65697 | 36100 ft | 428 kts | 165° |
| 2026-05-05 19:46 | 50.67350 | 5.66957 | 36282 ft | 429 kts | 164° |
| 2026-05-05 19:47 | 50.64489 | 5.68276 | 36452 ft | 430 kts | 163° |
| 2026-05-05 19:47 | 50.61637 | 5.69613 | 36613 ft | 431 kts | 163° |
| 2026-05-05 19:47 | 50.58789 | 5.70990 | 36765 ft | 432 kts | 161° |
| 2026-05-05 19:47 | 50.55971 | 5.72586 | 36914 ft | 432 kts | 159° |
| 2026-05-05 19:48 | 50.53149 | 5.74254 | 36991 ft | 434 kts | 160° |
| 2026-05-05 19:48 | 50.47499 | 5.77571 | 37006 ft | 442 kts | 160° |
| 2026-05-05 19:49 | 50.41686 | 5.80970 | 37010 ft | 449 kts | 160° |
| 2026-05-05 19:49 | 50.35806 | 5.84398 | 37011 ft | 456 kts | 160° |
| 2026-05-05 19:50 | 50.29867 | 5.87851 | 37010 ft | 461 kts | 160° |
| 2026-05-05 19:50 | 50.23854 | 5.91336 | 37011 ft | 465 kts | 160° |
| 2026-05-05 19:51 | 50.17787 | 5.94841 | 37010 ft | 468 kts | 160° |
| 2026-05-05 19:51 | 50.11669 | 5.98363 | 37009 ft | 469 kts | 160° |
| 2026-05-05 19:52 | 50.05588 | 6.01861 | 37009 ft | 469 kts | 160° |
| 2026-05-05 19:52 | 49.99474 | 6.05370 | 37009 ft | 469 kts | 160° |
| 2026-05-05 19:53 | 49.93427 | 6.09101 | 37007 ft | 469 kts | 153° |
| 2026-05-05 19:53 | 49.87998 | 6.14564 | 37009 ft | 469 kts | 140° |
| 2026-05-05 19:54 | 49.83522 | 6.21795 | 37010 ft | 469 kts | 127° |
| 2026-05-05 19:54 | 49.80151 | 6.30399 | 37011 ft | 469 kts | 117° |
| 2026-05-05 19:55 | 49.77149 | 6.39331 | 37009 ft | 469 kts | 117° |
| 2026-05-05 19:55 | 49.74129 | 6.48236 | 37009 ft | 469 kts | 117° |
| 2026-05-05 19:56 | 49.71082 | 6.57136 | 37009 ft | 469 kts | 117° |
| 2026-05-05 19:56 | 49.68035 | 6.66020 | 37009 ft | 469 kts | 118° |
| 2026-05-05 19:57 | 49.64990 | 6.74893 | 37009 ft | 469 kts | 118° |
| 2026-05-05 19:57 | 49.61941 | 6.83732 | 37009 ft | 469 kts | 118° |
| 2026-05-05 19:58 | 49.58857 | 6.92632 | 37009 ft | 469 kts | 118° |
| 2026-05-05 19:58 | 49.55790 | 7.01442 | 37009 ft | 469 kts | 118° |
| 2026-05-05 19:59 | 49.52720 | 7.10231 | 37009 ft | 469 kts | 118° |
| 2026-05-05 19:59 | 49.49625 | 7.19062 | 37009 ft | 469 kts | 118° |
| 2026-05-05 20:00 | 49.46522 | 7.27881 | 37009 ft | 469 kts | 118° |
| 2026-05-05 20:00 | 49.43441 | 7.36612 | 37009 ft | 469 kts | 118° |
| 2026-05-05 20:01 | 49.40315 | 7.45437 | 37009 ft | 469 kts | 118° |
| 2026-05-05 20:01 | 49.37194 | 7.54217 | 37009 ft | 469 kts | 118° |
| 2026-05-05 20:02 | 49.34068 | 7.62981 | 37009 ft | 469 kts | 118° |
| 2026-05-05 20:02 | 49.30995 | 7.71579 | 37009 ft | 469 kts | 119° |
| 2026-05-05 20:03 | 49.27856 | 7.80328 | 37009 ft | 469 kts | 119° |
| 2026-05-05 20:03 | 49.24739 | 7.88992 | 37009 ft | 469 kts | 119° |
| 2026-05-05 20:04 | 49.21581 | 7.97739 | 37009 ft | 469 kts | 119° |
| 2026-05-05 20:04 | 49.18424 | 8.06431 | 37009 ft | 469 kts | 119° |
| 2026-05-05 20:05 | 49.15235 | 8.15061 | 37005 ft | 469 kts | 122° |
| 2026-05-05 20:05 | 49.11017 | 8.22633 | 37009 ft | 469 kts | 139° |
| 2026-05-05 20:06 | 49.05637 | 8.28052 | 37010 ft | 469 kts | 155° |
| 2026-05-05 20:06 | 48.99459 | 8.31006 | 37009 ft | 469 kts | 171° |
| 2026-05-05 20:07 | 48.92958 | 8.31446 | 37010 ft | 469 kts | 180° |
| 2026-05-05 20:07 | 48.86482 | 8.31391 | 37009 ft | 469 kts | 180° |
| 2026-05-05 20:08 | 48.79984 | 8.31380 | 37009 ft | 469 kts | 179° |
| 2026-05-05 20:08 | 48.73501 | 8.31432 | 37009 ft | 469 kts | 179° |
| 2026-05-05 20:09 | 48.66997 | 8.31508 | 37009 ft | 469 kts | 179° |
| 2026-05-05 20:09 | 48.60514 | 8.31589 | 37009 ft | 469 kts | 179° |
| 2026-05-05 20:10 | 48.53985 | 8.31671 | 37009 ft | 469 kts | 179° |
| 2026-05-05 20:10 | 48.47486 | 8.31754 | 37009 ft | 469 kts | 179° |
| 2026-05-05 20:11 | 48.41018 | 8.31835 | 37009 ft | 469 kts | 179° |
| 2026-05-05 20:11 | 48.34497 | 8.31916 | 37009 ft | 469 kts | 179° |
| 2026-05-05 20:12 | 48.27980 | 8.31997 | 37009 ft | 469 kts | 179° |
| 2026-05-05 20:12 | 48.21482 | 8.32079 | 37009 ft | 469 kts | 179° |
| 2026-05-05 20:13 | 48.14983 | 8.32705 | 37009 ft | 469 kts | 173° |
| 2026-05-05 20:13 | 48.08571 | 8.34195 | 37009 ft | 469 kts | 170° |
| 2026-05-05 20:14 | 48.02158 | 8.35748 | 37009 ft | 469 kts | 171° |
| 2026-05-05 20:14 | 47.95731 | 8.37296 | 37009 ft | 469 kts | 171° |
| 2026-05-05 20:15 | 47.89359 | 8.38829 | 37009 ft | 469 kts | 171° |
| 2026-05-05 20:15 | 47.82937 | 8.40366 | 37009 ft | 469 kts | 171° |
| 2026-05-05 20:16 | 47.76506 | 8.41900 | 37009 ft | 469 kts | 171° |
| 2026-05-05 20:16 | 47.73362 | 8.42649 | 37001 ft | 455 kts | 171° |
| 2026-05-05 20:16 | 47.70263 | 8.43385 | 36998 ft | 439 kts | 171° |
| 2026-05-05 20:17 | 47.64265 | 8.44394 | 37006 ft | 434 kts | 174° |
| 2026-05-05 20:17 | 47.58302 | 8.45276 | 37008 ft | 434 kts | 174° |
| 2026-05-05 20:18 | 47.52317 | 8.46159 | 37009 ft | 434 kts | 174° |
| 2026-05-05 20:18 | 47.46308 | 8.47042 | 37009 ft | 434 kts | 174° |
| 2026-05-05 20:19 | 47.40331 | 8.47918 | 37009 ft | 434 kts | 174° |
| 2026-05-05 20:19 | 47.34329 | 8.48794 | 37009 ft | 434 kts | 174° |
| 2026-05-05 20:20 | 47.28361 | 8.49664 | 37009 ft | 434 kts | 174° |
| 2026-05-05 20:20 | 47.22376 | 8.50537 | 37009 ft | 434 kts | 174° |
| 2026-05-05 20:21 | 47.16366 | 8.51414 | 36791 ft | 433 kts | 174° |
| 2026-05-05 20:21 | 47.13379 | 8.51848 | 35962 ft | 441 kts | 174° |
| 2026-05-05 20:21 | 47.10318 | 8.52291 | 35044 ft | 447 kts | 174° |
| 2026-05-05 20:21 | 47.07222 | 8.52740 | 34284 ft | 449 kts | 174° |
| 2026-05-05 20:22 | 47.04127 | 8.53188 | 33580 ft | 449 kts | 174° |
| 2026-05-05 20:22 | 47.01025 | 8.53637 | 32777 ft | 452 kts | 174° |
| 2026-05-05 20:22 | 46.97922 | 8.54086 | 32050 ft | 452 kts | 174° |
| 2026-05-05 20:22 | 46.94807 | 8.54536 | 31351 ft | 452 kts | 174° |
| 2026-05-05 20:23 | 46.91680 | 8.54987 | 30650 ft | 451 kts | 174° |
| 2026-05-05 20:23 | 46.88565 | 8.55434 | 29949 ft | 451 kts | 174° |
| 2026-05-05 20:23 | 46.85496 | 8.55873 | 29268 ft | 450 kts | 174° |
| 2026-05-05 20:23 | 46.82410 | 8.56313 | 28810 ft | 443 kts | 174° |
| 2026-05-05 20:24 | 46.79356 | 8.56749 | 28346 ft | 438 kts | 174° |
| 2026-05-05 20:24 | 46.76355 | 8.57178 | 27881 ft | 432 kts | 174° |
| 2026-05-05 20:24 | 46.73393 | 8.57601 | 27418 ft | 428 kts | 174° |
| 2026-05-05 20:24 | 46.70465 | 8.58019 | 26957 ft | 423 kts | 174° |
| 2026-05-05 20:25 | 46.67539 | 8.58437 | 26495 ft | 419 kts | 174° |
| 2026-05-05 20:25 | 46.64678 | 8.58845 | 26104 ft | 413 kts | 174° |
| 2026-05-05 20:25 | 46.61866 | 8.59245 | 26017 ft | 410 kts | 174° |
| 2026-05-05 20:25 | 46.59000 | 8.59653 | 26010 ft | 411 kts | 174° |
| 2026-05-05 20:26 | 46.56152 | 8.60058 | 26007 ft | 411 kts | 174° |
| 2026-05-05 20:26 | 46.53332 | 8.60458 | 26006 ft | 411 kts | 174° |
| 2026-05-05 20:26 | 46.50503 | 8.60858 | 26005 ft | 411 kts | 174° |
| 2026-05-05 20:26 | 46.47647 | 8.61262 | 26005 ft | 411 kts | 174° |
| 2026-05-05 20:27 | 46.44837 | 8.61660 | 26005 ft | 411 kts | 174° |
| 2026-05-05 20:27 | 46.41971 | 8.62064 | 26005 ft | 411 kts | 174° |
| 2026-05-05 20:27 | 46.39156 | 8.62462 | 26005 ft | 411 kts | 174° |
| 2026-05-05 20:27 | 46.36304 | 8.62863 | 26004 ft | 411 kts | 174° |
| 2026-05-05 20:28 | 46.33445 | 8.62971 | 26004 ft | 411 kts | 181° |
| 2026-05-05 20:28 | 46.30619 | 8.62820 | 25956 ft | 408 kts | 182° |
| 2026-05-05 20:28 | 46.27782 | 8.62633 | 25557 ft | 404 kts | 182° |
| 2026-05-05 20:28 | 46.24994 | 8.62466 | 24965 ft | 403 kts | 182° |
| 2026-05-05 20:29 | 46.22230 | 8.62322 | 24433 ft | 401 kts | 181° |
| 2026-05-05 20:29 | 46.19434 | 8.62192 | 23927 ft | 398 kts | 181° |
| 2026-05-05 20:29 | 46.16715 | 8.62073 | 23432 ft | 395 kts | 181° |
| 2026-05-05 20:29 | 46.13958 | 8.61958 | 22926 ft | 392 kts | 181° |
| 2026-05-05 20:30 | 46.11275 | 8.61848 | 22432 ft | 389 kts | 181° |
| 2026-05-05 20:30 | 46.08582 | 8.61739 | 21934 ft | 386 kts | 181° |
| 2026-05-05 20:30 | 46.05940 | 8.61633 | 21444 ft | 383 kts | 181° |
| 2026-05-05 20:30 | 46.03280 | 8.61527 | 20950 ft | 380 kts | 181° |
| 2026-05-05 20:31 | 46.00638 | 8.61421 | 20459 ft | 377 kts | 181° |
| 2026-05-05 20:31 | 45.98046 | 8.61318 | 20089 ft | 372 kts | 181° |
| 2026-05-05 20:31 | 45.95508 | 8.61217 | 20013 ft | 358 kts | 181° |
| 2026-05-05 20:31 | 45.93088 | 8.61120 | 20002 ft | 342 kts | 181° |
| 2026-05-05 20:32 | 45.90754 | 8.61211 | 19990 ft | 336 kts | 169° |
| 2026-05-05 20:32 | 45.88581 | 8.62353 | 19999 ft | 336 kts | 147° |
| 2026-05-05 20:32 | 45.86722 | 8.64327 | 19906 ft | 330 kts | 140° |
| 2026-05-05 20:32 | 45.84961 | 8.66420 | 19442 ft | 330 kts | 140° |
| 2026-05-05 20:33 | 45.83189 | 8.68548 | 18971 ft | 330 kts | 140° |
| 2026-05-05 20:33 | 45.81431 | 8.70627 | 18570 ft | 328 kts | 141° |
| 2026-05-05 20:33 | 45.79681 | 8.72672 | 18176 ft | 326 kts | 141° |
| 2026-05-05 20:33 | 45.77927 | 8.74702 | 17777 ft | 324 kts | 142° |
| 2026-05-05 20:34 | 45.76092 | 8.76589 | 17374 ft | 322 kts | 147° |
| 2026-05-05 20:34 | 45.74180 | 8.78193 | 16980 ft | 320 kts | 151° |
| 2026-05-05 20:34 | 45.72242 | 8.79695 | 16589 ft | 318 kts | 152° |
| 2026-05-05 20:34 | 45.70290 | 8.81193 | 16194 ft | 316 kts | 152° |
| 2026-05-05 20:35 | 45.68363 | 8.82673 | 16012 ft | 314 kts | 152° |
| 2026-05-05 20:35 | 45.66443 | 8.84153 | 16008 ft | 315 kts | 152° |
| 2026-05-05 20:35 | 45.64565 | 8.85601 | 16000 ft | 303 kts | 152° |
| 2026-05-05 20:35 | 45.62748 | 8.87004 | 15995 ft | 287 kts | 152° |
| 2026-05-05 20:36 | 45.61082 | 8.88392 | 15982 ft | 273 kts | 140° |
| 2026-05-05 20:36 | 45.59950 | 8.90532 | 15987 ft | 271 kts | 109° |
| 2026-05-05 20:36 | 45.59703 | 8.93170 | 15997 ft | 271 kts | 81° |
| 2026-05-05 20:36 | 45.60251 | 8.95732 | 16012 ft | 271 kts | 68° |
| 2026-05-05 20:37 | 45.61046 | 8.98162 | 15997 ft | 271 kts | 55° |
| 2026-05-05 20:37 | 45.61869 | 8.99489 | 15995 ft | 271 kts | 37° |
| 2026-05-05 20:37 | 45.64093 | 9.01107 | 16007 ft | 271 kts | 22° |
| 2026-05-05 20:37 | 45.65862 | 9.02106 | 16004 ft | 271 kts | 19° |
| 2026-05-05 20:38 | 45.67695 | 9.02535 | 15981 ft | 271 kts | 351° |
| 2026-05-05 20:38 | 45.69434 | 9.01584 | 15996 ft | 271 kts | 322° |
| 2026-05-05 20:38 | 45.70664 | 8.99586 | 15999 ft | 271 kts | 295° |
| 2026-05-05 20:38 | 45.71121 | 8.96993 | 15959 ft | 268 kts | 268° |
| 2026-05-05 20:39 | 45.70724 | 8.94448 | 15629 ft | 267 kts | 241° |
| 2026-05-05 20:39 | 45.69545 | 8.92437 | 15207 ft | 268 kts | 214° |
| 2026-05-05 20:39 | 45.67899 | 8.91252 | 14873 ft | 266 kts | 202° |
| 2026-05-05 20:39 | 45.66192 | 8.90282 | 14548 ft | 264 kts | 201° |
| 2026-05-05 20:40 | 45.64500 | 8.89319 | 14217 ft | 263 kts | 202° |
| 2026-05-05 20:40 | 45.62797 | 8.88327 | 13889 ft | 262 kts | 202° |
| 2026-05-05 20:40 | 45.61124 | 8.87376 | 13564 ft | 261 kts | 195° |
| 2026-05-05 20:40 | 45.59340 | 8.87279 | 13182 ft | 260 kts | 164° |
| 2026-05-05 20:41 | 45.57769 | 8.88445 | 13013 ft | 256 kts | 137° |
| 2026-05-05 20:41 | 45.56707 | 8.90504 | 13008 ft | 258 kts | 111° |
| 2026-05-05 20:41 | 45.56389 | 8.92995 | 13006 ft | 259 kts | 85° |
| 2026-05-05 20:41 | 45.56866 | 8.95417 | 13005 ft | 259 kts | 59° |
| 2026-05-05 20:42 | 45.58073 | 8.97324 | 13004 ft | 259 kts | 32° |
| 2026-05-05 20:42 | 45.59688 | 8.98459 | 13011 ft | 259 kts | 22° |
| 2026-05-05 20:42 | 45.61336 | 8.99399 | 13006 ft | 259 kts | 21° |
| 2026-05-05 20:42 | 45.63013 | 9.00353 | 13004 ft | 259 kts | 22° |
| 2026-05-05 20:43 | 45.64683 | 9.01328 | 13003 ft | 259 kts | 22° |
| 2026-05-05 20:43 | 45.66365 | 9.02245 | 12995 ft | 259 kts | 12° |
| 2026-05-05 20:43 | 45.68139 | 9.02268 | 12995 ft | 259 kts | 344° |
| 2026-05-05 20:43 | 45.69726 | 9.01121 | 12999 ft | 259 kts | 317° |
| 2026-05-05 20:44 | 45.70779 | 8.99077 | 12999 ft | 259 kts | 291° |
| 2026-05-05 20:44 | 45.71081 | 8.96558 | 13000 ft | 259 kts | 264° |
| 2026-05-05 20:44 | 45.70566 | 8.94125 | 13000 ft | 259 kts | 238° |
| 2026-05-05 20:44 | 45.69349 | 8.92276 | 13000 ft | 259 kts | 211° |
| 2026-05-05 20:45 | 45.66064 | 8.90212 | 13005 ft | 259 kts | 201° |
| 2026-05-05 20:45 | 45.64385 | 8.89255 | 13003 ft | 259 kts | 202° |
| 2026-05-05 20:45 | 45.62709 | 8.88276 | 13003 ft | 259 kts | 202° |
| 2026-05-05 20:46 | 45.61046 | 8.87344 | 12997 ft | 259 kts | 194° |
| 2026-05-05 20:46 | 45.59269 | 8.87320 | 12992 ft | 258 kts | 163° |
| 2026-05-05 20:46 | 45.57706 | 8.88525 | 12999 ft | 259 kts | 136° |
| 2026-05-05 20:46 | 45.56670 | 8.90617 | 13002 ft | 258 kts | 110° |
| 2026-05-05 20:47 | 45.56382 | 8.93066 | 12863 ft | 254 kts | 84° |
| 2026-05-05 20:47 | 45.56875 | 8.95468 | 12468 ft | 255 kts | 58° |
| 2026-05-05 20:47 | 45.58072 | 8.97318 | 12094 ft | 255 kts | 32° |
| 2026-05-05 20:47 | 45.59654 | 8.98421 | 11783 ft | 253 kts | 22° |
| 2026-05-05 20:48 | 45.61279 | 8.99346 | 11461 ft | 252 kts | 21° |
| 2026-05-05 20:48 | 45.62909 | 9.00275 | 11142 ft | 251 kts | 22° |
| 2026-05-05 20:48 | 45.64504 | 9.01206 | 11013 ft | 249 kts | 22° |
| 2026-05-05 20:48 | 45.66112 | 9.02128 | 11006 ft | 251 kts | 16° |
| 2026-05-05 20:49 | 45.67821 | 9.02359 | 10844 ft | 247 kts | 350° |
| 2026-05-05 20:49 | 45.69396 | 9.01490 | 10468 ft | 248 kts | 323° |
| 2026-05-05 20:49 | 45.70564 | 8.99674 | 10108 ft | 248 kts | 297° |
| 2026-05-05 20:49 | 45.71059 | 8.97368 | 9781 ft | 246 kts | 272° |
| 2026-05-05 20:50 | 45.70826 | 8.94975 | 9453 ft | 245 kts | 248° |
| 2026-05-05 20:50 | 45.69899 | 8.92944 | 9123 ft | 244 kts | 222° |
| 2026-05-05 20:50 | 45.68495 | 8.91660 | 8811 ft | 242 kts | 204° |
| 2026-05-05 20:50 | 45.66933 | 8.90728 | 8509 ft | 241 kts | 201° |
| 2026-05-05 20:51 | 45.65386 | 8.89846 | 8199 ft | 240 kts | 202° |
| 2026-05-05 20:51 | 45.63851 | 8.88957 | 8018 ft | 238 kts | 202° |
| 2026-05-05 20:51 | 45.62322 | 8.88056 | 8009 ft | 239 kts | 202° |
| 2026-05-05 20:51 | 45.60748 | 8.87265 | 7993 ft | 240 kts | 187° |
| 2026-05-05 20:52 | 45.59107 | 8.87445 | 7999 ft | 240 kts | 160° |
| 2026-05-05 20:52 | 45.57669 | 8.88630 | 8001 ft | 240 kts | 136° |
| 2026-05-05 20:52 | 45.56708 | 8.90560 | 8002 ft | 240 kts | 111° |
| 2026-05-05 20:52 | 45.56398 | 8.92867 | 8002 ft | 240 kts | 86° |
| 2026-05-05 20:53 | 45.56789 | 8.95169 | 8003 ft | 240 kts | 62° |
| 2026-05-05 20:53 | 45.57815 | 8.97021 | 8003 ft | 240 kts | 37° |
| 2026-05-05 20:53 | 45.59254 | 8.98169 | 8010 ft | 240 kts | 23° |
| 2026-05-05 20:53 | 45.60793 | 8.99066 | 8005 ft | 240 kts | 21° |
| 2026-05-05 20:54 | 45.62344 | 8.99947 | 8003 ft | 240 kts | 21° |
| 2026-05-05 20:54 | 45.63895 | 9.00847 | 8002 ft | 240 kts | 22° |
| 2026-05-05 20:54 | 45.65439 | 9.01761 | 8002 ft | 240 kts | 22° |
| 2026-05-05 20:54 | 45.67034 | 9.02389 | 7992 ft | 240 kts | 1° |
| 2026-05-05 20:55 | 45.68679 | 9.02007 | 7998 ft | 240 kts | 336° |
| 2026-05-05 20:55 | 45.70034 | 9.00673 | 7999 ft | 240 kts | 311° |
| 2026-05-05 20:55 | 45.70874 | 8.98648 | 8000 ft | 240 kts | 286° |
| 2026-05-05 20:55 | 45.71045 | 8.96277 | 8000 ft | 240 kts | 262° |
| 2026-05-05 20:56 | 45.70513 | 8.94043 | 7999 ft | 240 kts | 237° |
| 2026-05-05 20:56 | 45.69385 | 8.92334 | 8000 ft | 240 kts | 212° |